createdAt,value
2023-02-16T00:01:16.843Z,6.87
2023-02-16T00:03:46.558Z,6.87
2023-02-16T00:06:16.223Z,6.80
2023-02-16T00:08:45.595Z,6.72
2023-02-16T00:11:35.657Z,6.67
2023-02-16T00:14:04.413Z,6.74
2023-02-16T00:16:32.235Z,6.66
2023-02-16T00:19:01.320Z,6.63
2023-02-16T00:21:29.154Z,6.48
2023-02-16T00:23:56.942Z,6.30
2023-02-16T00:26:25.978Z,6.38
2023-02-16T00:28:55.134Z,6.36
2023-02-16T00:31:27.312Z,6.35
2023-02-16T00:33:55.660Z,6.32
2023-02-16T00:36:25.071Z,6.23
2023-02-16T00:38:52.965Z,6.28
2023-02-16T00:41:40.090Z,6.23
2023-02-16T00:44:08.119Z,6.24
2023-02-16T00:46:35.946Z,6.06
2023-02-16T00:49:04.107Z,6.01
2023-02-16T00:51:33.416Z,5.99
2023-02-16T00:54:01.088Z,6.09
2023-02-16T00:56:28.861Z,6.04
2023-02-16T00:58:56.665Z,6.13
2023-02-16T01:01:25.850Z,6.03
2023-02-16T01:03:53.568Z,5.96
2023-02-16T01:06:50.365Z,5.91
2023-02-16T01:09:38.790Z,5.81
2023-02-16T01:12:10.644Z,5.74
2023-02-16T01:14:38.641Z,5.62
2023-02-16T01:17:06.295Z,5.66
2023-02-16T01:19:33.997Z,5.50
2023-02-16T01:22:01.731Z,5.45
2023-02-16T01:24:30.850Z,5.34
2023-02-16T01:26:58.512Z,5.23
2023-02-16T01:29:27.038Z,5.40
2023-02-16T01:31:54.864Z,5.39
2023-02-16T01:34:22.619Z,5.18
2023-02-16T01:36:50.673Z,5.27
2023-02-16T01:39:20.775Z,5.04
2023-02-16T01:41:58.653Z,5.20
2023-02-16T01:44:28.663Z,5.21
2023-02-16T01:46:58.279Z,5.17
2023-02-16T01:49:26.107Z,5.12
2023-02-16T01:51:57.753Z,5.08
2023-02-16T01:54:35.641Z,4.91
2023-02-16T01:57:10.209Z,4.99
2023-02-16T01:59:43.258Z,5.01
2023-02-16T02:02:16.561Z,4.99
2023-02-16T02:05:03.577Z,5.02
2023-02-16T02:07:38.795Z,5.05
2023-02-16T02:10:11.600Z,5.01
2023-02-16T02:12:47.713Z,5.10
2023-02-16T02:15:16.998Z,4.98
2023-02-16T02:17:46.220Z,5.00
2023-02-16T02:20:18.077Z,5.09
2023-02-16T02:23:16.540Z,5.13
2023-02-16T02:25:59.849Z,5.18
2023-02-16T02:28:34.290Z,5.27
2023-02-16T02:31:04.755Z,5.24
2023-02-16T02:33:42.585Z,5.16
2023-02-16T02:36:19.974Z,5.18
2023-02-16T02:38:57.519Z,5.24
2023-02-16T02:41:48.641Z,5.25
2023-02-16T02:44:21.118Z,5.28
2023-02-16T02:46:48.983Z,5.18
2023-02-16T02:49:17.114Z,4.98
2023-02-16T02:51:44.786Z,5.17
2023-02-16T02:54:32.049Z,5.27
2023-02-16T02:57:20.367Z,5.24
2023-02-16T03:00:11.356Z,5.34
2023-02-16T03:02:40.785Z,5.17
2023-02-16T03:05:10.303Z,5.05
2023-02-16T03:07:48.220Z,4.97
2023-02-16T03:10:34.915Z,4.84
2023-02-16T03:13:03.838Z,4.68
2023-02-16T03:15:33.253Z,4.84
2023-02-16T03:18:19.002Z,4.82
2023-02-16T03:21:05.134Z,5.04
2023-02-16T03:23:50.595Z,4.90
2023-02-16T03:26:36.951Z,4.99
2023-02-16T03:29:16.720Z,4.99
2023-02-16T03:31:46.439Z,5.08
2023-02-16T03:34:14.402Z,5.25
2023-02-16T03:36:44.678Z,5.19
2023-02-16T03:39:13.925Z,5.16
2023-02-16T03:41:43.787Z,5.23
2023-02-16T03:44:11.531Z,5.12
2023-02-16T03:46:39.231Z,5.06
2023-02-16T03:49:08.258Z,5.04
2023-02-16T03:51:35.971Z,5.03
2023-02-16T03:54:03.640Z,4.97
2023-02-16T03:56:31.321Z,4.91
2023-02-16T03:58:59.102Z,4.97
2023-02-16T04:01:26.887Z,5.05
2023-02-16T04:03:54.599Z,4.95
2023-02-16T04:06:23.807Z,5.04
2023-02-16T04:08:51.924Z,4.95
2023-02-16T04:11:37.028Z,4.96
2023-02-16T04:14:04.722Z,4.88
2023-02-16T04:16:32.439Z,4.97
2023-02-16T04:19:00.111Z,4.82
2023-02-16T04:21:29.565Z,4.81
2023-02-16T04:23:57.173Z,4.77
2023-02-16T04:26:24.812Z,4.83
2023-02-16T04:28:52.527Z,4.76
2023-02-16T04:31:20.355Z,4.77
2023-02-16T04:33:48.137Z,4.85
2023-02-16T04:36:15.810Z,4.82
2023-02-16T04:38:44.985Z,4.68
2023-02-16T04:41:12.594Z,4.77
2023-02-16T04:43:40.229Z,4.82
2023-02-16T04:46:07.927Z,4.83
2023-02-16T04:48:35.604Z,4.68
2023-02-16T04:51:05.257Z,4.62
2023-02-16T04:53:33.347Z,4.59
2023-02-16T04:56:02.397Z,4.52
2023-02-16T04:58:30.114Z,4.55
2023-02-16T05:00:57.766Z,4.57
2023-02-16T05:03:25.433Z,4.62
2023-02-16T05:05:53.065Z,4.49
2023-02-16T05:08:21.007Z,4.45
2023-02-16T05:11:08.935Z,4.55
2023-02-16T05:13:55.879Z,4.64
2023-02-16T05:16:24.395Z,4.63
2023-02-16T05:18:52.095Z,4.62
2023-02-16T05:21:32.398Z,4.67
2023-02-16T05:24:00.403Z,4.79
2023-02-16T05:26:29.334Z,4.94
2023-02-16T05:28:58.638Z,4.94
2023-02-16T05:31:27.378Z,4.89
2023-02-16T05:33:55.171Z,4.88
2023-02-16T05:36:23.321Z,4.86
2023-02-16T05:38:50.993Z,4.75
2023-02-16T05:41:24.457Z,4.84
2023-02-16T05:43:53.737Z,4.84
2023-02-16T05:46:24.012Z,4.84
2023-02-16T05:48:52.803Z,4.83
2023-02-16T05:51:20.874Z,4.84
2023-02-16T05:53:48.631Z,4.82
2023-02-16T05:56:16.469Z,4.79
2023-02-16T05:58:44.115Z,4.83
2023-02-16T06:01:11.887Z,4.93
2023-02-16T06:03:41.255Z,4.96
2023-02-16T06:06:09.764Z,5.00
2023-02-16T06:08:38.124Z,5.08
2023-02-16T06:11:27.271Z,5.09
2023-02-16T06:13:58.106Z,5.13
2023-02-16T06:16:26.707Z,5.16
2023-02-16T06:18:56.275Z,5.27
2023-02-16T06:21:24.789Z,5.29
2023-02-16T06:23:52.619Z,5.32
2023-02-16T06:26:20.262Z,5.49
2023-02-16T06:28:47.984Z,5.51
2023-02-16T06:31:15.784Z,5.48
2023-02-16T06:33:43.943Z,5.54
2023-02-16T06:36:13.237Z,5.56
2023-02-16T06:38:40.892Z,5.70
2023-02-16T06:41:08.675Z,5.70
2023-02-16T06:43:36.638Z,5.68
2023-02-16T06:46:04.755Z,5.76
2023-02-16T06:48:32.416Z,5.83
2023-02-16T06:51:00.099Z,5.89
2023-02-16T06:53:29.160Z,5.73
2023-02-16T06:55:57.345Z,5.76
2023-02-16T06:58:24.994Z,5.81
2023-02-16T07:00:55.704Z,5.85
2023-02-16T07:03:23.395Z,5.89
2023-02-16T07:05:51.173Z,5.94
2023-02-16T07:08:18.844Z,5.90
2023-02-16T07:10:50.354Z,5.94
2023-02-16T07:13:18.214Z,5.88
2023-02-16T07:15:51.614Z,5.96
2023-02-16T07:18:19.345Z,6.06
2023-02-16T07:20:47.338Z,6.10
2023-02-16T07:23:14.961Z,6.19
2023-02-16T07:25:42.628Z,6.25
2023-02-16T07:28:11.702Z,6.23
2023-02-16T07:30:39.423Z,6.36
2023-02-16T07:33:07.704Z,6.53
2023-02-16T07:35:35.430Z,6.54
2023-02-16T07:38:03.407Z,6.59
2023-02-16T07:40:31.842Z,6.75
2023-02-16T07:43:00.726Z,6.77
2023-02-16T07:45:32.649Z,6.67
2023-02-16T07:48:00.416Z,6.65
2023-02-16T07:50:28.165Z,6.65
2023-02-16T07:52:55.839Z,6.87
2023-02-16T07:55:23.597Z,6.85
2023-02-16T07:57:55.409Z,7.11
2023-02-16T08:00:23.387Z,7.16
2023-02-16T08:02:52.755Z,7.06
2023-02-16T08:05:20.536Z,7.11
2023-02-16T08:07:48.616Z,7.18
2023-02-16T08:10:16.326Z,7.36
2023-02-16T08:12:44.426Z,7.28
2023-02-16T08:15:12.542Z,7.42
2023-02-16T08:17:40.813Z,7.56
2023-02-16T08:20:10.853Z,7.48
2023-02-16T08:22:38.597Z,7.47
2023-02-16T08:25:07.261Z,7.33
2023-02-16T08:27:35.585Z,7.32
2023-02-16T08:30:03.512Z,7.18
2023-02-16T08:32:31.420Z,7.25
2023-02-16T08:34:59.502Z,7.27
2023-02-16T08:37:28.738Z,7.18
2023-02-16T08:39:56.407Z,7.21
2023-02-16T08:42:24.056Z,7.37
2023-02-16T08:44:52.993Z,7.42
2023-02-16T08:47:21.103Z,7.61
2023-02-16T08:49:48.813Z,7.51
2023-02-16T08:52:16.841Z,7.56
2023-02-16T08:54:45.878Z,7.60
2023-02-16T08:57:13.503Z,7.62
2023-02-16T08:59:41.222Z,7.78
2023-02-16T09:02:09.174Z,7.67
2023-02-16T09:04:37.099Z,7.81
2023-02-16T09:07:05.257Z,7.62
2023-02-16T09:09:33.265Z,7.64
2023-02-16T09:12:02.778Z,7.80
2023-02-16T09:14:30.487Z,7.91
2023-02-16T09:16:58.216Z,7.91
2023-02-16T09:19:26.174Z,7.96
2023-02-16T09:21:56.310Z,7.93
2023-02-16T09:24:23.957Z,8.00
2023-02-16T09:26:52.079Z,8.16
2023-02-16T09:29:21.794Z,8.29
2023-02-16T09:31:49.819Z,8.33
2023-02-16T09:34:19.054Z,8.41
2023-02-16T09:36:47.376Z,8.55
2023-02-16T09:39:16.537Z,8.63
2023-02-16T09:42:03.789Z,8.66
2023-02-16T09:44:39.836Z,8.82
2023-02-16T09:47:12.754Z,8.82
2023-02-16T09:49:42.738Z,9.00
2023-02-16T09:52:15.869Z,9.16
2023-02-16T09:54:47.595Z,9.37
2023-02-16T09:57:21.436Z,9.49
2023-02-16T09:59:54.065Z,9.63
2023-02-16T10:02:32.032Z,9.58
2023-02-16T10:05:13.362Z,9.72
2023-02-16T10:07:46.899Z,9.57
2023-02-16T10:10:17.797Z,9.84
2023-02-16T10:12:51.573Z,10.02
2023-02-16T10:15:22.931Z,9.79
2023-02-16T10:17:55.495Z,9.96
2023-02-16T10:20:25.913Z,9.89
2023-02-16T10:22:58.610Z,9.68
2023-02-16T10:25:30.841Z,9.68
2023-02-16T10:28:16.062Z,9.82
2023-02-16T10:30:50.358Z,9.76
2023-02-16T10:33:24.328Z,9.72
2023-02-16T10:35:57.133Z,9.92
2023-02-16T10:38:32.346Z,9.99
2023-02-16T10:41:03.033Z,9.96
2023-02-16T10:43:40.917Z,10.12
2023-02-16T10:46:11.948Z,10.17
2023-02-16T10:48:39.667Z,10.14
2023-02-16T10:51:14.151Z,10.10
2023-02-16T10:53:44.459Z,10.17
2023-02-16T10:56:32.792Z,10.09
2023-02-16T10:59:01.877Z,10.23
2023-02-16T11:01:38.233Z,10.34
2023-02-16T11:04:06.399Z,10.28
2023-02-16T11:06:36.424Z,10.22
2023-02-16T11:09:06.633Z,10.30
2023-02-16T11:11:38.081Z,10.46
2023-02-16T11:14:09.168Z,10.69
2023-02-16T11:16:38.276Z,10.62
2023-02-16T11:19:08.822Z,10.51
2023-02-16T11:21:48.445Z,10.78
2023-02-16T11:24:26.264Z,10.67
2023-02-16T11:27:06.184Z,10.80
2023-02-16T11:29:34.369Z,10.70
2023-02-16T11:32:08.233Z,10.70
2023-02-16T11:34:37.644Z,10.75
2023-02-16T11:37:09.141Z,10.74
2023-02-16T11:39:39.130Z,10.63
2023-02-16T11:42:09.880Z,10.99
2023-02-16T11:44:39.928Z,11.14
2023-02-16T11:47:23.872Z,11.01
2023-02-16T11:49:53.468Z,10.80
2023-02-16T11:52:29.176Z,11.00
2023-02-16T11:54:58.833Z,10.89
2023-02-16T11:57:28.610Z,11.14
2023-02-16T11:59:57.183Z,11.13
2023-02-16T12:02:40.727Z,10.95
2023-02-16T12:05:23.399Z,10.79
2023-02-16T12:08:02.448Z,10.50
2023-02-16T12:10:32.624Z,10.65
2023-02-16T12:13:04.106Z,10.53
2023-02-16T12:15:36.886Z,10.23
2023-02-16T12:18:18.374Z,10.37
2023-02-16T12:20:54.164Z,10.57
2023-02-16T12:23:31.102Z,10.53
2023-02-16T12:26:09.875Z,10.42
2023-02-16T12:28:43.566Z,10.16
2023-02-16T12:31:17.208Z,10.32
2023-02-16T12:33:51.883Z,10.13
2023-02-16T12:36:29.926Z,10.17
2023-02-16T12:39:04.999Z,10.10
2023-02-16T12:41:44.268Z,9.91
2023-02-16T12:44:17.422Z,9.93
2023-02-16T12:46:46.900Z,9.75
2023-02-16T12:49:21.169Z,9.93
2023-02-16T12:51:51.816Z,9.93
2023-02-16T12:54:23.939Z,9.88
2023-02-16T12:56:56.193Z,9.96
2023-02-16T12:59:27.422Z,9.92
2023-02-16T13:01:57.214Z,10.02
2023-02-16T13:04:38.271Z,9.91
2023-02-16T13:07:17.992Z,9.75
2023-02-16T13:09:53.442Z,9.90
2023-02-16T13:12:27.466Z,9.99
2023-02-16T13:15:02.817Z,9.78
2023-02-16T13:17:34.545Z,9.88
2023-02-16T13:20:04.951Z,9.82
2023-02-16T13:22:45.244Z,9.80
2023-02-16T13:25:43.180Z,10.10
2023-02-16T13:28:27.381Z,10.33
2023-02-16T13:31:08.312Z,10.15
2023-02-16T13:33:51.558Z,9.89
2023-02-16T13:36:36.044Z,10.01
2023-02-16T13:39:17.541Z,9.96
2023-02-16T13:41:58.770Z,10.21
2023-02-16T13:44:29.679Z,9.92
2023-02-16T13:46:57.672Z,9.78
2023-02-16T13:49:33.931Z,9.93
2023-02-16T13:52:03.744Z,9.95
2023-02-16T13:54:33.026Z,10.02
2023-02-16T13:57:04.088Z,9.97
2023-02-16T13:59:51.021Z,9.99
2023-02-16T14:02:54.404Z,10.08
2023-02-16T14:05:31.119Z,10.03
2023-02-16T14:08:20.356Z,10.04
2023-02-16T14:10:58.938Z,9.98
2023-02-16T14:13:29.817Z,9.96
2023-02-16T14:15:59.193Z,9.98
2023-02-16T14:18:32.731Z,9.91
2023-02-16T14:21:04.936Z,9.74
2023-02-16T14:23:35.564Z,9.89
2023-02-16T14:26:04.810Z,9.64
2023-02-16T14:29:00.672Z,9.75
2023-02-16T14:31:28.792Z,9.69
2023-02-16T14:34:03.641Z,9.98
2023-02-16T14:36:32.235Z,9.86
2023-02-16T14:39:01.926Z,10.12
2023-02-16T14:41:32.507Z,10.15
2023-02-16T14:44:24.796Z,10.12
2023-02-16T14:47:01.553Z,10.22
2023-02-16T14:49:39.171Z,10.32
2023-02-16T14:52:26.434Z,10.17
2023-02-16T14:55:24.060Z,10.17
2023-02-16T14:57:54.887Z,10.43
2023-02-16T15:00:26.857Z,10.29
2023-02-16T15:02:59.640Z,10.60
2023-02-16T15:05:29.990Z,10.61
2023-02-16T15:08:04.646Z,10.69
2023-02-16T15:10:34.006Z,11.75
2023-02-16T15:13:02.348Z,11.57
2023-02-16T15:15:42.375Z,11.84
2023-02-16T15:18:15.370Z,11.76
2023-02-16T15:20:46.282Z,11.72
2023-02-16T15:23:20.037Z,11.38
2023-02-16T15:25:58.629Z,11.28
2023-02-16T15:28:27.685Z,11.10
2023-02-16T15:30:57.234Z,10.80
2023-02-16T15:33:34.245Z,10.94
2023-02-16T15:36:04.582Z,11.20
2023-02-16T15:38:34.222Z,10.58
2023-02-16T15:41:06.022Z,10.33
2023-02-16T15:43:35.865Z,10.25
2023-02-16T15:46:05.702Z,10.24
2023-02-16T15:48:34.805Z,10.22
2023-02-16T15:51:08.038Z,10.24
2023-02-16T15:53:43.211Z,10.34
2023-02-16T15:56:25.827Z,10.37
2023-02-16T15:58:54.042Z,10.47
2023-02-16T16:01:31.597Z,10.32
2023-02-16T16:04:05.799Z,10.36
2023-02-16T16:06:35.908Z,10.29
2023-02-16T16:09:08.228Z,10.27
2023-02-16T16:11:38.294Z,10.22
2023-02-16T16:14:07.318Z,10.23
2023-02-16T16:16:35.157Z,10.12
2023-02-16T16:19:08.728Z,10.01
2023-02-16T16:21:39.335Z,10.04
2023-02-16T16:24:08.831Z,9.96
2023-02-16T16:26:52.926Z,10.12
2023-02-16T16:29:31.962Z,10.12
2023-02-16T16:31:59.693Z,9.95
2023-02-16T16:34:36.726Z,9.92
2023-02-16T16:37:07.000Z,9.86
2023-02-16T16:39:36.092Z,9.91
2023-02-16T16:42:20.957Z,9.94
2023-02-16T16:45:00.472Z,9.84
2023-02-16T16:47:32.985Z,9.82
2023-02-16T16:50:03.937Z,9.78
2023-02-16T16:52:40.775Z,9.83
2023-02-16T16:55:22.454Z,9.83
2023-02-16T16:57:52.384Z,9.83
2023-02-16T17:00:21.518Z,9.86
2023-02-16T17:02:49.571Z,9.84
2023-02-16T17:05:17.353Z,9.92
2023-02-16T17:07:49.018Z,9.90
2023-02-16T17:10:18.020Z,9.84
2023-02-16T17:12:46.444Z,9.85
2023-02-16T17:15:31.174Z,9.87
2023-02-16T17:17:59.268Z,9.96
2023-02-16T17:20:27.076Z,9.91
2023-02-16T17:22:54.766Z,9.93
2023-02-16T17:25:22.472Z,9.89
2023-02-16T17:27:50.321Z,10.03
2023-02-16T17:30:18.423Z,9.98
2023-02-16T17:32:47.484Z,10.00
2023-02-16T17:35:15.367Z,9.98
2023-02-16T17:37:43.098Z,9.98
2023-02-16T17:40:15.036Z,10.00
2023-02-16T17:42:43.059Z,9.98
2023-02-16T17:45:10.984Z,10.00
2023-02-16T17:47:38.912Z,10.06
2023-02-16T17:50:09.592Z,10.20
2023-02-16T17:52:37.545Z,10.12
2023-02-16T17:55:05.568Z,10.18
2023-02-16T17:57:33.519Z,10.15
2023-02-16T18:00:01.232Z,10.11
2023-02-16T18:02:29.117Z,10.15
2023-02-16T18:04:56.765Z,10.07
2023-02-16T18:07:26.050Z,10.05
2023-02-16T18:09:53.979Z,10.09
2023-02-16T18:12:22.105Z,10.09
2023-02-16T18:14:49.740Z,10.14
2023-02-16T18:17:17.941Z,10.20
2023-02-16T18:19:45.714Z,10.27
2023-02-16T18:22:13.914Z,10.24
2023-02-16T18:24:44.410Z,10.40
2023-02-16T18:27:12.068Z,10.36
2023-02-16T18:29:39.869Z,10.41
2023-02-16T18:32:07.735Z,10.34
2023-02-16T18:34:37.560Z,10.28
2023-02-16T18:37:05.431Z,10.24
2023-02-16T18:39:33.475Z,10.38
2023-02-16T18:42:02.932Z,10.27
2023-02-16T18:44:30.551Z,10.31
2023-02-16T18:46:58.864Z,10.30
2023-02-16T18:49:26.521Z,10.37
2023-02-16T18:51:54.519Z,10.33
2023-02-16T18:54:22.156Z,10.45
2023-02-16T18:56:50.150Z,10.47
2023-02-16T18:59:19.208Z,10.38
2023-02-16T19:01:46.864Z,10.54
2023-02-16T19:04:14.509Z,10.41
2023-02-16T19:06:42.146Z,10.63
2023-02-16T19:09:09.787Z,10.61
2023-02-16T19:11:37.697Z,10.63
2023-02-16T19:14:05.325Z,10.60
2023-02-16T19:16:34.690Z,10.74
2023-02-16T19:19:02.542Z,10.82
2023-02-16T19:21:30.339Z,10.78
2023-02-16T19:23:59.018Z,10.70
2023-02-16T19:26:26.874Z,10.70
2023-02-16T19:28:54.853Z,10.70
2023-02-16T19:31:24.672Z,10.75
2023-02-16T19:33:55.686Z,10.73
2023-02-16T19:36:23.849Z,10.72
2023-02-16T19:38:51.552Z,10.78
2023-02-16T19:41:20.692Z,10.81
2023-02-16T19:43:48.475Z,10.79
2023-02-16T19:46:16.484Z,10.81
2023-02-16T19:48:45.980Z,10.88
2023-02-16T19:51:15.712Z,10.70
2023-02-16T19:53:44.829Z,10.60
2023-02-16T19:56:14.449Z,10.47
2023-02-16T19:58:42.077Z,10.39
2023-02-16T20:01:12.046Z,10.25
2023-02-16T20:03:40.049Z,10.27
2023-02-16T20:06:17.806Z,10.23
2023-02-16T20:08:46.137Z,10.12
2023-02-16T20:11:13.975Z,10.17
2023-02-16T20:13:41.709Z,10.15
2023-02-16T20:16:10.824Z,10.19
2023-02-16T20:18:39.297Z,10.18
2023-02-16T20:21:08.912Z,10.02
2023-02-16T20:23:37.998Z,10.01
2023-02-16T20:26:07.453Z,9.79
2023-02-16T20:28:35.326Z,9.75
2023-02-16T20:31:04.356Z,9.83
2023-02-16T20:33:31.981Z,9.77
2023-02-16T20:35:59.594Z,9.74
2023-02-16T20:38:27.171Z,9.78
2023-02-16T20:40:56.195Z,9.79
2023-02-16T20:43:23.916Z,9.74
2023-02-16T20:45:51.567Z,9.83
2023-02-16T20:48:19.682Z,9.78
2023-02-16T20:50:47.596Z,9.88
2023-02-16T20:53:15.188Z,9.80
2023-02-16T20:55:43.211Z,9.78
2023-02-16T20:58:12.272Z,9.84
2023-02-16T21:00:39.974Z,9.85
2023-02-16T21:03:07.684Z,9.81
2023-02-16T21:05:35.443Z,9.83
2023-02-16T21:08:03.458Z,9.89
2023-02-16T21:10:31.108Z,9.79
2023-02-16T21:12:58.748Z,9.85
2023-02-16T21:15:28.062Z,9.81
2023-02-16T21:17:55.784Z,9.92
2023-02-16T21:20:23.432Z,9.77
2023-02-16T21:22:51.480Z,9.75
2023-02-16T21:25:19.561Z,9.81
2023-02-16T21:27:47.241Z,9.70
2023-02-16T21:30:15.867Z,9.74
2023-02-16T21:32:45.063Z,9.74
2023-02-16T21:35:12.734Z,9.75
2023-02-16T21:37:40.409Z,9.82
2023-02-16T21:40:26.803Z,9.83
2023-02-16T21:42:54.457Z,9.76
2023-02-16T21:45:22.160Z,9.75
2023-02-16T21:48:08.940Z,9.70
2023-02-16T21:50:38.482Z,9.72
2023-02-16T21:53:07.052Z,9.72
2023-02-16T21:55:52.162Z,9.74
2023-02-16T21:58:19.800Z,9.70
2023-02-16T22:00:51.180Z,9.69
2023-02-16T22:03:21.066Z,9.70
2023-02-16T22:05:48.837Z,9.72
2023-02-16T22:08:17.799Z,9.81
2023-02-16T22:10:45.714Z,9.65
2023-02-16T22:13:13.413Z,9.69
2023-02-16T22:15:41.102Z,9.63
2023-02-16T22:18:08.969Z,9.67
2023-02-16T22:20:38.349Z,9.71
2023-02-16T22:23:05.995Z,9.71
2023-02-16T22:25:33.612Z,9.71
2023-02-16T22:28:01.374Z,9.72
2023-02-16T22:30:29.117Z,9.70
2023-02-16T22:32:56.817Z,9.77
2023-02-16T22:35:24.725Z,9.74
2023-02-16T22:37:53.818Z,9.77
2023-02-16T22:40:21.438Z,9.75
2023-02-16T22:42:49.088Z,9.79
2023-02-16T22:45:16.842Z,9.79
2023-02-16T22:47:44.491Z,9.80
2023-02-16T22:50:12.312Z,9.81
2023-02-16T22:52:40.076Z,9.75
2023-02-16T22:55:10.056Z,9.79
2023-02-16T22:57:37.988Z,9.79
2023-02-16T23:00:08.458Z,9.78
2023-02-16T23:02:37.640Z,9.80
2023-02-16T23:05:05.837Z,9.86
2023-02-16T23:07:34.130Z,9.75
2023-02-16T23:10:01.929Z,9.84
2023-02-16T23:12:31.005Z,9.84
2023-02-16T23:14:58.648Z,9.80
2023-02-16T23:17:26.300Z,9.88
2023-02-16T23:19:53.951Z,9.80
2023-02-16T23:22:21.719Z,9.83
2023-02-16T23:25:09.892Z,9.84
2023-02-16T23:27:39.372Z,9.82
2023-02-16T23:30:08.676Z,9.85
2023-02-16T23:32:36.631Z,9.80
2023-02-16T23:35:04.589Z,9.86
2023-02-16T23:37:32.460Z,9.87
2023-02-16T23:40:00.376Z,9.85
2023-02-16T23:42:28.059Z,9.89
2023-02-16T23:44:57.080Z,9.85
2023-02-16T23:47:24.867Z,9.91
2023-02-16T23:49:52.554Z,9.91
2023-02-16T23:52:20.443Z,9.98
2023-02-16T23:54:48.204Z,9.98
2023-02-16T23:57:15.860Z,9.96
2023-02-16T23:59:44.274Z,9.94
